Time;durP1;ratioP1;P1;durP2;ratioP2;P2;SDS_P1;SDS_P2;PMS_P1;PMS_P2;Temp;Humidity;BMP_temperature;BMP_pressure;BME280_temperature;BME280_humidity;BME280_pressure;Samples;Min_cycle;Max_cycle;Signal;HPM_P1;HPM_P2
2023/01/23 00:02:02;;;;;;;;;;;;;;;18.12;61.88;102754.33;2392603;74;51966;-72
2023/01/23 00:05:04;;;;;;;;;;;;;;;18.06;62.00;102748.50;2384658;74;52263;-72
2023/01/23 00:08:05;;;;;;;;;;;;;;;18.03;62.11;102752.78;2379131;74;50948;-72
2023/01/23 00:11:08;;;;;;;;;;;;;;;17.99;62.29;102759.86;2385888;74;51489;-72
2023/01/23 00:14:10;;;;;;;;;;;;;;;17.99;62.52;102755.84;2385458;74;50742;-71
2023/01/23 00:17:11;;;;;;;;;;;;;;;18.02;62.81;102759.10;2386228;74;50348;-72
2023/01/23 00:20:13;;;;;;;;;;;;;;;18.06;62.80;102754.36;2386104;74;50025;-72
2023/01/23 00:23:14;;;;;;;;;;;;;;;18.11;62.63;102757.50;2392957;74;50675;-71
2023/01/23 00:26:17;;;;;;;;;;;;;;;18.14;62.41;102761.76;2393078;74;51361;-72
2023/01/23 00:29:19;;;;;;;;;;;;;;;18.18;62.33;102757.82;2386004;74;50289;-72
2023/01/23 00:32:20;;;;;;;;;;;;;;;18.23;62.23;102759.63;2392671;74;52571;-72
2023/01/23 00:35:22;;;;;;;;;;;;;;;18.25;62.16;102759.02;2381251;74;50028;-71
2023/01/23 00:38:23;;;;;;;;;;;;;;;18.24;62.16;102760.00;2344003;75;50200;-71
2023/01/23 00:41:25;;;;;;;;;;;;;;;18.21;62.19;102753.53;2340348;76;51448;-72
2023/01/23 00:44:26;;;;;;;;;;;;;;;18.18;62.26;102749.78;2308051;76;49371;-72
2023/01/23 00:47:28;;;;;;;;;;;;;;;18.15;62.31;102751.39;2308221;76;50352;-72
2023/01/23 00:50:30;;;;;;;;;;;;;;;18.10;62.39;102758.95;2340338;76;50778;-72
2023/01/23 00:53:31;;;;;;;;;;;;;;;18.05;62.50;102758.00;2308018;76;50585;-72
2023/01/23 00:56:33;;;;;;;;;;;;;;;18.01;62.67;102761.44;2282669;76;51577;-72
2023/01/23 00:59:34;;;;;;;;;;;;;;;18.00;62.93;102770.43;2340280;76;51473;-72
2023/01/23 01:02:36;;;;;;;;;;;;;;;18.04;63.00;102771.89;2307938;76;51398;-72
2023/01/23 01:05:37;;;;;;;;;;;;;;;18.09;62.99;102770.66;2343621;74;50356;-72
2023/01/23 01:08:39;;;;;;;;;;;;;;;18.14;62.88;102779.17;2333430;75;49591;-72
2023/01/23 01:11:41;;;;;;;;;;;;;;;18.19;62.80;102777.80;2360768;74;50321;-73
2023/01/23 01:14:42;;;;;;;;;;;;;;;18.22;62.63;102792.77;2395244;74;50749;-73
2023/01/23 01:17:44;;;;;;;;;;;;;;;18.23;62.57;102787.77;2397316;74;50694;-72
2023/01/23 01:20:45;;;;;;;;;;;;;;;18.19;62.59;102785.00;2386742;74;51569;-73
2023/01/23 01:23:47;;;;;;;;;;;;;;;18.17;62.61;102790.47;2393521;74;51416;-72
2023/01/23 01:26:48;;;;;;;;;;;;;;;18.14;62.66;102784.03;2387807;74;50617;-72
2023/01/23 01:29:50;;;;;;;;;;;;;;;18.11;62.70;102788.78;2391310;74;50657;-73
2023/01/23 01:32:52;;;;;;;;;;;;;;;18.08;62.85;102787.70;2347884;74;51198;-71
2023/01/23 01:35:55;;;;;;;;;;;;;;;18.04;62.98;102795.16;2373974;74;50040;-72
2023/01/23 01:38:57;;;;;;;;;;;;;;;18.00;63.33;102799.05;2345430;76;50647;-72
2023/01/23 01:41:58;;;;;;;;;;;;;;;18.00;63.47;102804.41;2350065;76;51413;-72
2023/01/23 01:45:00;;;;;;;;;;;;;;;18.05;63.51;102816.94;2325747;76;50530;-71
2023/01/23 01:48:02;;;;;;;;;;;;;;;18.11;63.38;102815.56;2344895;75;50357;-71
2023/01/23 01:51:05;;;;;;;;;;;;;;;18.14;63.21;102812.16;2344839;76;50587;-71
2023/01/23 01:54:14;;;;;;;;;;;;;;;18.18;63.05;102811.41;2344821;75;51545;-71
2023/01/23 01:57:17;;;;;;;;;;;;;;;18.21;62.88;102812.48;2309101;76;51018;-72
2023/01/23 02:00:19;;;;;;;;;;;;;;;18.18;62.81;102813.59;2343635;75;51460;-71
2023/01/23 02:03:21;;;;;;;;;;;;;;;18.20;62.78;102814.81;2344786;76;50671;-72
2023/01/23 02:06:23;;;;;;;;;;;;;;;18.16;62.83;102814.23;2344730;76;51543;-72
2023/01/23 02:09:25;;;;;;;;;;;;;;;18.13;62.84;102823.84;2377396;74;51653;-73
2023/01/23 02:12:27;;;;;;;;;;;;;;;18.09;62.90;102817.55;2344862;76;51544;-71
2023/01/23 02:15:29;;;;;;;;;;;;;;;18.05;62.92;102819.12;2345082;76;50690;-71
2023/01/23 02:18:31;;;;;;;;;;;;;;;18.01;63.12;102819.03;2345011;76;51462;-71
2023/01/23 02:21:32;;;;;;;;;;;;;;;17.99;63.37;102817.45;2379636;74;51737;-71
2023/01/23 02:24:39;;;;;;;;;;;;;;;17.97;63.61;102816.72;2344728;75;50380;-72
2023/01/23 02:27:40;;;;;;;;;;;;;;;18.01;63.59;102815.50;2345056;76;51414;-72
2023/01/23 02:30:43;;;;;;;;;;;;;;;18.06;63.40;102819.50;2379414;74;51422;-72
2023/01/23 02:33:49;;;;;;;;;;;;;;;18.11;63.18;102811.09;2379529;74;49620;-72
2023/01/23 02:36:51;;;;;;;;;;;;;;;18.16;63.02;102806.66;2362305;74;51543;-71
2023/01/23 02:39:53;;;;;;;;;;;;;;;18.21;62.87;102816.05;2386459;74;51280;-71
2023/01/23 02:42:54;;;;;;;;;;;;;;;18.19;62.74;102811.79;2378613;74;50751;-72
2023/01/23 02:45:56;;;;;;;;;;;;;;;18.19;62.78;102823.84;2379336;74;51013;-71
2023/01/23 02:48:57;;;;;;;;;;;;;;;18.17;62.80;102825.80;2381865;74;51574;-72
2023/01/23 02:51:59;;;;;;;;;;;;;;;18.14;62.88;102832.76;2361916;75;50576;-72
2023/01/23 02:55:01;;;;;;;;;;;;;;;18.11;62.94;102841.02;2362037;75;51519;-71
2023/01/23 03:01:22;;;;;;;;;;;;;;;18.03;63.11;102852.37;2362310;75;22236;-71
2023/01/23 03:04:23;;;;;;;;;;;;;;;17.99;63.34;102857.14;2361614;75;50199;-72
2023/01/23 03:07:25;;;;;;;;;;;;;;;17.97;63.53;102856.41;2361821;75;51493;-73
2023/01/23 03:10:27;;;;;;;;;;;;;;;18.01;63.56;102854.34;2348981;75;51419;-72
2023/01/23 03:13:29;;;;;;;;;;;;;;;18.05;63.44;102857.97;2367187;74;51529;-72
2023/01/23 03:16:31;;;;;;;;;;;;;;;18.10;63.25;102846.87;2322564;74;50588;-71
2023/01/23 03:19:33;;;;;;;;;;;;;;;18.15;63.21;102859.90;2321942;76;49945;-71
2023/01/23 03:22:34;;;;;;;;;;;;;;;18.17;63.10;102853.93;2282792;76;52495;-72
2023/01/23 03:25:36;;;;;;;;;;;;;;;18.17;63.02;102856.61;2322116;76;50602;-71
2023/01/23 03:31:57;;;;;;;;;;;;;;;18.17;62.96;102867.33;2322241;76;22970;-72
2023/01/23 03:34:58;;;;;;;;;;;;;;;18.13;62.99;102873.91;2309378;76;51223;-71
2023/01/23 03:38:00;;;;;;;;;;;;;;;18.09;63.08;102876.00;2282660;76;51774;-72
2023/01/23 03:44:21;;;;;;;;;;;;;;;18.01;63.20;102884.66;2341304;75;22365;-71
2023/01/23 03:47:25;;;;;;;;;;;;;;;17.98;63.40;102886.25;2333415;76;49512;-72
2023/01/23 03:50:26;;;;;;;;;;;;;;;17.97;63.59;102885.02;2312355;76;22318;-73
2023/01/23 03:53:27;;;;;;;;;;;;;;;18.00;63.55;102889.62;2311121;76;51520;-71
2023/01/23 03:56:29;;;;;;;;;;;;;;;18.04;63.45;102892.94;2311271;76;51457;-71
2023/01/23 03:59:31;;;;;;;;;;;;;;;18.08;63.39;102899.73;2311367;76;51231;-72
2023/01/23 04:02:32;;;;;;;;;;;;;;;18.14;63.18;102902.42;2333412;75;50241;-72
2023/01/23 04:05:34;;;;;;;;;;;;;;;18.17;62.99;102908.37;2333811;75;50687;-72
2023/01/23 04:08:35;;;;;;;;;;;;;;;18.18;62.84;102906.53;2327165;74;50389;-72
2023/01/23 04:11:37;;;;;;;;;;;;;;;18.15;62.83;102908.97;2349419;74;49553;-72
2023/01/23 04:14:38;;;;;;;;;;;;;;;18.12;62.85;102915.08;2349114;74;50191;-72
2023/01/23 04:17:40;;;;;;;;;;;;;;;18.09;62.90;102914.00;2349565;74;50550;-72
2023/01/23 04:20:42;;;;;;;;;;;;;;;18.06;62.86;102913.76;2382078;74;52459;-72
2023/01/23 04:23:43;;;;;;;;;;;;;;;18.02;63.14;102911.80;2382134;74;51477;-71
2023/01/23 04:26:45;;;;;;;;;;;;;;;17.99;63.06;102909.38;2382551;74;51481;-72
2023/01/23 04:29:49;;;;;;;;;;;;;;;17.95;63.26;102907.06;2382520;74;50676;-71
2023/01/23 04:32:51;;;;;;;;;;;;;;;17.93;63.62;102915.23;2323386;76;51534;-73
2023/01/23 04:35:53;;;;;;;;;;;;;;;17.97;63.57;102915.83;2336423;75;52566;-72
2023/01/23 04:38:55;;;;;;;;;;;;;;;18.01;63.33;102916.80;2333400;76;50755;-72
2023/01/23 04:41:57;;;;;;;;;;;;;;;18.07;63.19;102915.45;2333455;76;51470;-73
2023/01/23 04:44:58;;;;;;;;;;;;;;;18.12;62.98;102922.63;2351974;75;51459;-72
2023/01/23 04:48:00;;;;;;;;;;;;;;;18.18;62.96;102923.95;2350795;75;50902;-72
2023/01/23 04:51:01;;;;;;;;;;;;;;;18.17;62.79;102927.62;2361764;74;50223;-72
2023/01/23 04:54:03;;;;;;;;;;;;;;;18.15;62.76;102926.89;2376153;74;50226;-73
2023/01/23 04:57:05;;;;;;;;;;;;;;;18.12;62.87;102932.00;2376302;74;51512;-74
2023/01/23 05:00:07;;;;;;;;;;;;;;;18.10;62.83;102931.77;2348781;75;52461;-72
2023/01/23 05:03:08;;;;;;;;;;;;;;;18.05;62.90;102930.30;2361649;74;50253;-72
2023/01/23 05:06:10;;;;;;;;;;;;;;;18.02;63.01;102929.70;2361635;75;50600;-72
2023/01/23 05:09:12;;;;;;;;;;;;;;;17.97;63.09;102928.73;2361834;75;51390;-73
2023/01/23 05:12:14;;;;;;;;;;;;;;;17.94;63.35;102923.62;2375009;74;51699;-74
2023/01/23 05:15:16;;;;;;;;;;;;;;;17.92;63.57;102926.91;2328422;75;50701;-72
2023/01/23 05:18:17;;;;;;;;;;;;;;;17.93;63.56;102924.61;2297832;76;50281;-72
2023/01/23 05:21:19;;;;;;;;;;;;;;;17.99;63.39;102924.59;2321925;76;50239;-72
2023/01/23 05:24:20;;;;;;;;;;;;;;;18.04;63.21;102924.59;2271953;76;50102;-73
2023/01/23 05:27:22;;;;;;;;;;;;;;;18.08;63.05;102925.17;2297244;76;51386;-72
2023/01/23 05:30:24;;;;;;;;;;;;;;;18.14;62.92;102927.87;2297494;76;50585;-71
2023/01/23 05:33:25;;;;;;;;;;;;;;;18.16;62.98;102932.59;2321654;76;51484;-74
2023/01/23 05:36:27;;;;;;;;;;;;;;;18.15;62.98;102936.27;2297389;76;51359;-73
2023/01/23 05:39:30;;;;;;;;;;;;;;;18.11;62.94;102926.30;2297312;76;50456;-73
2023/01/23 05:42:31;;;;;;;;;;;;;;;18.10;62.94;102928.59;2321030;76;50309;-73
2023/01/23 05:45:33;;;;;;;;;;;;;;;18.08;62.90;102923.84;2334725;75;50251;-73
2023/01/23 05:48:35;;;;;;;;;;;;;;;18.03;62.86;102923.36;2310144;75;49537;-74
2023/01/23 05:51:36;;;;;;;;;;;;;;;18.00;62.87;102927.14;2345403;76;50292;-74
2023/01/23 05:54:38;;;;;;;;;;;;;;;17.97;62.90;102931.90;2345198;76;52301;-72
2023/01/23 05:57:40;;;;;;;;;;;;;;;17.95;62.93;102940.54;2345579;76;49836;-73
2023/01/23 06:00:41;;;;;;;;;;;;;;;17.96;62.84;102948.47;2325598;76;49534;-73
2023/01/23 06:03:43;;;;;;;;;;;;;;;17.98;62.79;102949.66;2325352;76;50378;-72
2023/01/23 06:06:44;;;;;;;;;;;;;;;18.01;62.61;102963.69;2345120;76;50370;-73
2023/01/23 06:09:46;;;;;;;;;;;;;;;18.05;62.47;102958.42;2325528;76;50354;-74
2023/01/23 06:12:48;;;;;;;;;;;;;;;18.10;62.23;102960.74;2328359;74;50899;-75
2023/01/23 06:15:49;;;;;;;;;;;;;;;18.14;62.03;102969.41;2369584;74;51585;-74
2023/01/23 06:18:51;;;;;;;;;;;;;;;18.14;61.88;102972.93;2345422;76;51494;-73
2023/01/23 06:21:52;;;;;;;;;;;;;;;18.14;62.01;102974.77;2345263;76;51588;-74
2023/01/23 06:24:54;;;;;;;;;;;;;;;18.09;62.18;102983.16;2299598;76;52775;-73
2023/01/23 06:27:56;;;;;;;;;;;;;;;18.05;62.12;102982.53;2325532;76;51484;-73
2023/01/23 06:30:59;;;;;;;;;;;;;;;18.03;62.26;102983.17;2345505;76;51444;-75
2023/01/23 06:34:00;;;;;;;;;;;;;;;17.97;62.12;102978.28;2344698;75;51377;-73
2023/01/23 06:37:02;;;;;;;;;;;;;;;17.94;62.30;102978.53;2325556;76;49527;-73
2023/01/23 06:40:04;;;;;;;;;;;;;;;17.92;62.37;102985.83;2325547;76;51462;-74
2023/01/23 06:43:06;;;;;;;;;;;;;;;17.92;62.50;102975.61;2332093;74;50272;-73
2023/01/23 06:46:08;;;;;;;;;;;;;;;17.94;62.34;102979.88;2358969;74;50699;-73
2023/01/23 06:49:10;;;;;;;;;;;;;;;18.00;62.13;102986.07;2323332;76;49614;-73
2023/01/23 06:52:11;;;;;;;;;;;;;;;18.06;61.95;102988.77;2321394;76;50619;-77
2023/01/23 06:55:13;;;;;;;;;;;;;;;18.12;61.90;102995.46;2321587;76;50282;-77
2023/01/23 06:58:14;;;;;;;;;;;;;;;18.12;61.74;102998.14;2297454;76;50729;-77
2023/01/23 07:01:16;;;;;;;;;;;;;;;18.11;61.82;102996.41;2272044;76;51691;-77
2023/01/23 07:04:18;;;;;;;;;;;;;;;18.10;61.77;102998.75;2297028;76;50567;-77
2023/01/23 07:07:19;;;;;;;;;;;;;;;18.04;61.78;103000.94;2330476;75;50575;-77
2023/01/23 07:10:22;;;;;;;;;;;;;;;18.02;61.76;103009.58;2352989;74;50717;-77
2023/01/23 07:13:24;;;;;;;;;;;;;;;17.98;61.80;103011.27;2344493;74;49600;-77
2023/01/23 07:16:25;;;;;;;;;;;;;;;17.93;61.94;103007.64;2335929;75;50165;-77
2023/01/23 07:19:27;;;;;;;;;;;;;;;17.91;62.13;103005.56;2335387;75;50432;-77
2023/01/23 07:22:29;;;;;;;;;;;;;;;17.91;62.13;103004.72;2326977;75;50018;-77
2023/01/23 07:25:30;;;;;;;;;;;;;;;17.94;62.14;103013.36;2309210;76;51128;-77
2023/01/23 07:28:32;;;;;;;;;;;;;;;17.99;62.01;103023.71;2321684;76;50567;-78
2023/01/23 07:31:33;;;;;;;;;;;;;;;18.06;61.91;103020.42;2332669;75;50575;-75
2023/01/23 07:34:35;;;;;;;;;;;;;;;18.12;61.86;103036.50;2321752;76;50434;-77
2023/01/23 07:37:37;;;;;;;;;;;;;;;18.12;61.89;103032.48;2345452;75;51607;-76
2023/01/23 07:40:41;;;;;;;;;;;;;;;18.10;61.92;103023.70;2265126;76;52541;-76
2023/01/23 07:43:41;;;;;;;;;;;;;;;18.08;61.97;103018.95;2316651;76;22982;-77
2023/01/23 07:46:44;;;;;;;;;;;;;;;18.05;62.04;103018.70;2347500;74;50204;-75
2023/01/23 07:49:45;;;;;;;;;;;;;;;18.02;62.30;103026.98;2344045;74;50726;-74
2023/01/23 07:52:47;;;;;;;;;;;;;;;17.99;62.32;103025.90;2376647;74;49615;-74
2023/01/23 07:55:48;;;;;;;;;;;;;;;17.95;62.43;103021.75;2351759;74;50694;-76
2023/01/23 07:58:50;;;;;;;;;;;;;;;17.96;62.47;103022.63;2378031;74;51404;-76
2023/01/23 08:01:52;;;;;;;;;;;;;;;17.98;62.47;103026.89;2371998;74;50571;-77
2023/01/23 08:04:53;;;;;;;;;;;;;;;17.99;62.46;103026.39;2332253;75;50087;-75
2023/01/23 08:07:55;;;;;;;;;;;;;;;18.05;62.42;103026.73;2324166;74;53721;-75
2023/01/23 08:10:57;;;;;;;;;;;;;;;18.11;62.31;103029.91;2393670;74;50728;-78
2023/01/23 08:13:58;;;;;;;;;;;;;;;18.16;62.17;103030.40;2383686;74;51477;-79
2023/01/23 08:17:00;;;;;;;;;;;;;;;18.18;61.92;103021.27;2345232;75;50089;-80
2023/01/23 08:20:02;;;;;;;;;;;;;;;18.09;61.99;103019.83;2345090;74;50756;-75
2023/01/23 08:23:04;;;;;;;;;;;;;;;18.08;62.63;103032.84;2363253;74;50285;-77
2023/01/23 08:26:07;;;;;;;;;;;;;;;18.03;63.33;103038.09;2345974;76;51478;-77
2023/01/23 08:29:09;;;;;;;;;;;;;;;17.99;63.46;103041.97;2352258;75;51172;-75
2023/01/23 08:32:11;;;;;;;;;;;;;;;17.98;63.84;103049.66;2354974;75;50584;-76
2023/01/23 08:35:13;;;;;;;;;;;;;;;17.97;63.94;103049.77;2360351;74;50834;-77
2023/01/23 08:38:14;;;;;;;;;;;;;;;17.97;64.12;103049.77;2393600;74;51420;-78
2023/01/23 08:41:16;;;;;;;;;;;;;;;17.93;63.59;103050.50;2394666;74;52585;-78
2023/01/23 08:44:17;;;;;;;;;;;;;;;17.92;63.67;103058.64;2367242;74;51417;-80
2023/01/23 08:47:19;;;;;;;;;;;;;;;17.95;64.15;103066.44;2354389;74;50797;-79
2023/01/23 08:50:20;;;;;;;;;;;;;;;18.00;63.06;103071.80;2375807;74;50372;-78
2023/01/23 08:53:22;;;;;;;;;;;;;;;18.03;62.76;103080.95;2377531;74;49231;-78
2023/01/23 08:56:24;;;;;;;;;;;;;;;18.10;62.36;103080.47;2330502;75;50682;-78
2023/01/23 08:59:25;;;;;;;;;;;;;;;18.06;62.31;103094.11;2366337;75;50358;-79
2023/01/23 09:02:27;;;;;;;;;;;;;;;18.04;62.24;103097.38;2377329;74;51443;-79
2023/01/23 09:05:29;;;;;;;;;;;;;;;18.01;62.17;103097.63;2349371;75;50954;-78
2023/01/23 09:08:30;;;;;;;;;;;;;;;17.97;62.22;103096.15;2324700;74;50024;-77
2023/01/23 09:11:32;;;;;;;;;;;;;;;17.98;62.22;103103.23;2309776;76;50735;-78
2023/01/23 09:14:33;;;;;;;;;;;;;;;17.94;62.19;103103.58;2334121;75;51438;-78
2023/01/23 09:17:35;;;;;;;;;;;;;;;17.87;62.41;103108.55;2262673;76;50970;-78
2023/01/23 09:20:38;;;;;;;;;;;;;;;17.82;62.58;103117.42;2309772;75;51350;-79
2023/01/23 09:23:40;;;;;;;;;;;;;;;17.83;62.37;103120.48;2321009;75;51588;-78
2023/01/23 09:26:42;;;;;;;;;;;;;;;17.91;62.10;103123.91;2321830;76;51471;-78
2023/01/23 09:29:43;;;;;;;;;;;;;;;17.99;61.89;103131.72;2315106;76;51576;-79
2023/01/23 09:32:45;;;;;;;;;;;;;;;18.05;61.64;103133.06;2313341;77;51421;-77
2023/01/23 09:35:48;;;;;;;;;;;;;;;18.10;61.45;103137.58;2301595;76;51332;-78
2023/01/23 09:38:50;;;;;;;;;;;;;;;18.09;61.41;103135.03;2324115;75;50725;-78
2023/01/23 09:41:52;;;;;;;;;;;;;;;18.10;61.30;103139.41;2334705;76;51852;-78
2023/01/23 09:44:55;;;;;;;;;;;;;;;18.09;61.26;103145.26;2339668;75;50281;-78
2023/01/23 09:47:58;;;;;;;;;;;;;;;18.05;61.26;103137.08;2351327;75;51588;-78
2023/01/23 09:51:04;;;;;;;;;;;;;;;18.01;61.29;103132.45;2329597;75;50761;-78
2023/01/23 09:54:17;;;;;;;;;;;;;;;17.98;61.38;103133.16;2324441;76;50310;-77
2023/01/23 09:57:20;;;;;;;;;;;;;;;17.98;61.40;103125.13;2360947;74;50606;-78
2023/01/23 10:00:26;;;;;;;;;;;;;;;17.96;61.45;103129.77;2385255;74;50275;-78
2023/01/23 10:03:29;;;;;;;;;;;;;;;17.97;61.29;103147.05;2392964;74;50675;-78
2023/01/23 10:06:31;;;;;;;;;;;;;;;17.95;61.33;103136.92;2387057;74;49410;-78
2023/01/23 10:09:37;;;;;;;;;;;;;;;17.98;61.31;103147.44;2371659;74;51262;-78
2023/01/23 10:12:43;;;;;;;;;;;;;;;18.00;61.33;103145.46;2385796;74;50392;-78
2023/01/23 10:15:52;;;;;;;;;;;;;;;18.06;61.08;103145.50;2386185;74;51532;-78
2023/01/23 10:19:02;;;;;;;;;;;;;;;18.08;61.01;103148.05;2365666;74;51784;-77
2023/01/23 10:22:08;;;;;;;;;;;;;;;18.11;60.91;103145.13;2363112;74;50640;-77
2023/01/23 10:25:11;;;;;;;;;;;;;;;18.14;60.72;103144.91;2344995;76;51505;-78
2023/01/23 10:28:14;;;;;;;;;;;;;;;18.12;60.68;103147.69;2344201;75;51365;-78
2023/01/23 10:31:21;;;;;;;;;;;;;;;18.12;60.58;103149.53;2352538;74;51772;-78
2023/01/23 10:34:36;;;;;;;;;;;;;;;18.06;60.69;103149.52;2344813;76;50491;-77
2023/01/23 10:37:42;;;;;;;;;;;;;;;17.99;60.81;103149.13;2358484;74;51506;-77
2023/01/23 10:44:07;;;;;;;;;;;;;;;17.92;61.03;103159.94;2345082;76;22336;-77
2023/01/23 10:47:16;;;;;;;;;;;;;;;17.95;60.91;103152.16;2344787;74;50216;-77
2023/01/23 10:50:19;;;;;;;;;;;;;;;17.91;61.06;103158.24;2344509;74;51425;-77
2023/01/23 10:53:20;;;;;;;;;;;;;;;17.96;60.94;103153.39;2315678;74;50287;-77
2023/01/23 10:56:22;;;;;;;;;;;;;;;17.97;60.88;103155.08;2311109;76;51549;-77
2023/01/23 10:59:25;;;;;;;;;;;;;;;18.01;60.74;103149.87;2357929;75;50242;-77
2023/01/23 11:02:28;;;;;;;;;;;;;;;18.05;60.62;103150.47;2373778;75;50718;-78
2023/01/23 11:05:40;;;;;;;;;;;;;;;18.12;60.56;103150.86;2347826;75;50407;-76
2023/01/23 11:08:46;;;;;;;;;;;;;;;18.14;60.56;103148.92;2362187;74;52365;-76
2023/01/23 11:12:01;;;;;;;;;;;;;;;18.11;61.08;103146.45;2354487;75;51508;-77
2023/01/23 11:15:13;;;;;;;;;;;;;;;18.04;61.52;103144.77;2337644;74;50330;-77
2023/01/23 11:18:29;;;;;;;;;;;;;;;18.01;61.87;103155.23;2349271;75;51390;-77
2023/01/23 11:21:34;;;;;;;;;;;;;;;17.98;61.97;103147.44;2311658;76;52565;-78
2023/01/23 11:24:36;;;;;;;;;;;;;;;17.98;62.03;103147.44;2310853;76;50212;-77
2023/01/23 11:27:38;;;;;;;;;;;;;;;17.97;62.10;103137.67;2333515;76;51567;-78
2023/01/23 11:30:59;;;;;;;;;;;;;;;17.96;62.09;103135.13;2311363;76;51406;-77
2023/01/23 11:34:02;;;;;;;;;;;;;;;17.95;62.08;103127.55;2337394;76;51882;-76
2023/01/23 11:37:13;;;;;;;;;;;;;;;17.94;62.16;103133.89;2336635;75;50739;-78
2023/01/23 11:40:16;;;;;;;;;;;;;;;17.96;62.12;103131.95;2340568;75;50240;-76
2023/01/23 11:43:17;;;;;;;;;;;;;;;17.97;62.09;103133.65;2332974;76;50330;-78
2023/01/23 11:46:20;;;;;;;;;;;;;;;18.00;62.02;103135.23;2346706;75;51355;-77
2023/01/23 11:49:27;;;;;;;;;;;;;;;18.01;61.65;103133.80;2360610;75;50828;-77
2023/01/23 11:52:36;;;;;;;;;;;;;;;18.00;61.48;103131.22;2361474;74;50611;-77
2023/01/23 11:55:56;;;;;;;;;;;;;;;17.97;61.41;103128.30;2345340;76;50741;-77
2023/01/23 11:59:02;;;;;;;;;;;;;;;17.95;61.42;103128.89;2325513;76;51224;-78
2023/01/23 12:02:11;;;;;;;;;;;;;;;17.95;61.47;103127.55;2345934;74;51441;-78
2023/01/23 12:05:20;;;;;;;;;;;;;;;17.97;61.40;103115.39;2359206;74;50354;-78
2023/01/23 12:08:27;;;;;;;;;;;;;;;18.00;61.30;103121.36;2363556;74;50638;-78
2023/01/23 12:11:30;;;;;;;;;;;;;;;18.02;61.23;103118.08;2343794;75;51261;-78
2023/01/23 12:14:36;;;;;;;;;;;;;;;18.07;61.08;103111.03;2336858;76;50209;-76
2023/01/23 12:17:42;;;;;;;;;;;;;;;18.11;61.34;103104.47;2382033;74;50260;-77
2023/01/23 12:20:50;;;;;;;;;;;;;;;18.17;61.42;103103.12;2388500;74;50631;-79
2023/01/23 12:23:56;;;;;;;;;;;;;;;18.23;61.23;103107.99;2368917;74;51654;-77
2023/01/23 12:27:02;;;;;;;;;;;;;;;18.31;61.00;103105.55;2371002;74;51386;-79
2023/01/23 12:30:17;;;;;;;;;;;;;;;18.40;60.73;103102.16;2353172;74;50304;-80
2023/01/23 12:33:20;;;;;;;;;;;;;;;18.48;60.58;103107.76;2337181;74;50820;-78
2023/01/23 12:36:26;;;;;;;;;;;;;;;18.58;60.32;103107.88;2359092;74;50126;-78
2023/01/23 12:39:46;;;;;;;;;;;;;;;18.66;60.15;103103.24;2375056;74;51438;-77
2023/01/23 12:42:55;;;;;;;;;;;;;;;18.72;59.94;103101.39;2346759;76;50615;-74
2023/01/23 12:45:58;;;;;;;;;;;;;;;18.79;59.71;103101.30;2354798;74;50604;-75
2023/01/23 12:49:04;;;;;;;;;;;;;;;18.88;59.47;103101.91;2393898;74;51175;-75
2023/01/23 12:52:07;;;;;;;;;;;;;;;18.98;59.17;103101.13;2386665;74;50223;-75
2023/01/23 12:55:16;;;;;;;;;;;;;;;19.03;59.03;103092.22;2382023;74;51503;-76
2023/01/23 12:58:18;;;;;;;;;;;;;;;19.10;58.73;103091.59;2382441;74;50616;-76
2023/01/23 13:01:27;;;;;;;;;;;;;;;19.18;58.59;103089.61;2375422;74;50591;-76
2023/01/23 13:04:30;;;;;;;;;;;;;;;19.25;58.32;103098.02;2384579;74;52002;-77
2023/01/23 13:07:34;;;;;;;;;;;;;;;19.31;58.09;103098.34;2386269;74;50285;-77
2023/01/23 13:13:46;;;;;;;;;;;;;;;19.42;57.77;103100.15;2357307;74;22311;-74
2023/01/23 13:16:48;;;;;;;;;;;;;;;19.48;57.54;103100.97;2386029;74;51417;-76
2023/01/23 13:23:11;;;;;;;;;;;;;;;19.60;57.17;103101.77;2345235;76;22488;-76
2023/01/23 13:26:19;;;;;;;;;;;;;;;19.66;56.95;103109.30;2318315;76;51628;-77
2023/01/23 13:29:38;;;;;;;;;;;;;;;19.70;56.85;103101.85;2356475;74;51718;-78
2023/01/23 13:32:40;;;;;;;;;;;;;;;19.76;56.63;103108.06;2386413;74;51418;-77
2023/01/23 13:35:47;;;;;;;;;;;;;;;19.79;56.45;103104.61;2386327;74;50274;-77
2023/01/23 13:39:02;;;;;;;;;;;;;;;19.84;56.37;103107.41;2356794;74;50985;-79
2023/01/23 13:42:15;;;;;;;;;;;;;;;19.89;56.31;103103.83;2361113;74;51604;-78
2023/01/23 13:45:25;;;;;;;;;;;;;;;19.93;56.16;103109.28;2349393;74;51562;-79
2023/01/23 13:51:48;;;;;;;;;;;;;;;19.98;55.97;103103.02;2346725;74;24427;-78
2023/01/23 13:58:10;;;;;;;;;;;;;;;20.03;55.81;103093.22;2345499;76;22381;-78
2023/01/23 14:08:00;;;;;;;;;;;;;;;20.21;55.30;103109.94;2386010;74;24350;-77
2023/01/23 14:11:04;;;;;;;;;;;;;;;20.27;54.91;103105.01;2364803;74;50283;-78
2023/01/23 14:17:26;;;;;;;;;;;;;;;20.21;55.03;103113.97;2379080;74;22406;-74
2023/01/23 14:20:27;;;;;;;;;;;;;;;20.11;55.52;103119.78;2362644;74;51452;-76
2023/01/23 14:23:35;;;;;;;;;;;;;;;20.00;56.10;103115.34;2348347;74;51367;-77
2023/01/23 14:26:37;;;;;;;;;;;;;;;19.88;56.57;103112.86;2378115;74;52344;-77
2023/01/23 14:29:39;;;;;;;;;;;;;;;19.75;56.91;103115.74;2365474;74;52560;-77
2023/01/23 14:32:40;;;;;;;;;;;;;;;19.66;57.38;103124.07;2383284;74;51380;-77
2023/01/23 14:35:42;;;;;;;;;;;;;;;19.65;57.56;103124.19;2361431;74;52353;-76
2023/01/23 14:38:44;;;;;;;;;;;;;;;19.63;57.60;103121.65;2371783;74;50274;-77
2023/01/23 14:41:46;;;;;;;;;;;;;;;19.65;57.73;103125.06;2361803;74;51701;-77
2023/01/23 14:44:47;;;;;;;;;;;;;;;19.67;57.75;103124.45;2357704;74;50746;-77
2023/01/23 14:47:49;;;;;;;;;;;;;;;19.68;57.71;103127.52;2386076;74;51392;-76
2023/01/23 14:50:52;;;;;;;;;;;;;;;19.71;57.72;103117.84;2380328;74;51451;-76
2023/01/23 14:53:54;;;;;;;;;;;;;;;19.70;57.87;103124.19;2375163;74;51397;-76
2023/01/23 14:56:56;;;;;;;;;;;;;;;19.74;57.73;103129.67;2350850;74;50636;-76
2023/01/23 14:59:58;;;;;;;;;;;;;;;19.77;57.72;103131.24;2347636;74;50213;-76
2023/01/23 15:02:59;;;;;;;;;;;;;;;19.78;57.75;103136.50;2367849;74;51643;-76
2023/01/23 15:06:02;;;;;;;;;;;;;;;19.84;57.67;103134.27;2341627;75;52419;-76
2023/01/23 15:09:04;;;;;;;;;;;;;;;19.82;57.72;103137.08;2344905;74;50769;-76
2023/01/23 15:12:07;;;;;;;;;;;;;;;19.88;57.75;103131.67;2382131;74;50722;-76
2023/01/23 15:15:10;;;;;;;;;;;;;;;19.86;57.86;103145.25;2367433;74;50376;-77
2023/01/23 15:18:19;;;;;;;;;;;;;;;19.88;57.94;103153.16;2335974;75;51421;-76
2023/01/23 15:21:28;;;;;;;;;;;;;;;19.92;57.89;103151.93;2360721;74;50648;-76
2023/01/23 15:24:29;;;;;;;;;;;;;;;19.92;57.90;103150.59;2328115;74;49864;-77
2023/01/23 15:27:31;;;;;;;;;;;;;;;19.93;57.98;103152.28;2386081;74;50613;-76
2023/01/23 15:30:34;;;;;;;;;;;;;;;19.95;57.92;103154.34;2393166;74;51133;-77
2023/01/23 15:33:41;;;;;;;;;;;;;;;20.01;57.86;103160.53;2386155;74;50500;-77
2023/01/23 15:36:40;;;;;;;;;;;;;;;20.05;57.72;103157.95;2378868;74;21863;-76
2023/01/23 15:39:48;;;;;;;;;;;;;;;20.05;57.75;103164.67;2393306;74;50438;-77
2023/01/23 15:43:01;;;;;;;;;;;;;;;20.05;57.76;103164.67;2386519;74;52717;-77
2023/01/23 15:46:03;;;;;;;;;;;;;;;20.06;57.62;103167.70;2350972;75;50216;-77
2023/01/23 15:49:04;;;;;;;;;;;;;;;19.98;57.83;103174.23;2356403;74;50140;-77
2023/01/23 15:52:22;;;;;;;;;;;;;;;19.91;58.07;103177.95;2351268;74;50533;-76
2023/01/23 15:55:25;;;;;;;;;;;;;;;19.79;58.27;103172.27;2352018;75;52438;-76
2023/01/23 15:58:26;;;;;;;;;;;;;;;19.71;58.49;103180.98;2376802;75;51499;-76
2023/01/23 16:01:28;;;;;;;;;;;;;;;19.63;59.03;103177.20;2362121;74;51499;-78
2023/01/23 16:04:30;;;;;;;;;;;;;;;19.56;59.18;103179.54;2336533;75;50439;-76
2023/01/23 16:07:33;;;;;;;;;;;;;;;19.59;59.15;103179.28;2313252;75;51653;-77
2023/01/23 16:10:37;;;;;;;;;;;;;;;19.59;59.21;103184.65;2320851;76;51551;-77
2023/01/23 16:13:39;;;;;;;;;;;;;;;19.59;59.32;103181.97;2335679;75;51536;-76
2023/01/23 16:16:41;;;;;;;;;;;;;;;19.62;59.42;103183.54;2298681;76;50753;-76